Mostly Cloudy Current Weather (METAR) For London Heathrow Airport

All times on the weather descriptions are local

Observed at 14:50 - (16 mins ago)

Mostly Cloudy

10°C

Mostly Cloudy
Clouds: Broken Clouds at 2,500ft
Wind: 250° at 16 knots
Visibility: Greater than 10km
QNH: 1025
Dew Point: 6°C
Runway in Use: Landing: Runway , Take-Off: Runway

Sunrise Today: 08:02
Sunset Today: 15:57

Forecast Weather (TAF) For London Heathrow Airport

Issued at 00:00 - (9 days 8 hrs ago)


Runway in Use: Likely Runways 27L/R

Forecast valid until 00:00 on Wednesday

METAR/TAF RAW METAR / TAF

EGLL 211450Z 25016KT 9999 BKN025 10/06 Q1025

Weather Widget

Put weather from any of our airports on your website with our weather widget.

Find Another Search

Airport Search


Please Wait Please Wait - Loading
Close
Close

Login

Username:

Password:

Remember Me:

Remember me on this computer

Forgotten your password? Get a reset password sent to your registered e-mail address

Close

User Private Message

Subject:

Message: